AirNav   Everest Fuels
 
 977 users online  

FL81 Triple B Airpark
Crestview, Florida, USA

GOING TO CRESTVIEW?


FAA INFORMATION EFFECTIVE 22 APRIL 2021

Location

FAA Identifier: FL81
Lat/Long: 30-46-54.6740N 086-28-01.8210W
30-46.911233N 086-28.030350W
30.7818539,-86.4671725
(estimated)
Elevation: 210 ft. / 64.0 m (surveyed)
Variation: 00E (1985)
From city: 6 miles NE of CRESTVIEW, FL
Time zone: UTC -5 (UTC -6 during Standard Time)
Zip code: 32539

Airport Operations

Airport use: Private use. Permission required prior to landing
Activation date: 03/1976
Control tower: no
ARTCC: JACKSONVILLE CENTER
FSS: GAINESVILLE FLIGHT SERVICE STATION
Attendance: CONTINUOUS
Wind indicator: yes
Segmented circle: no

Airport Communications

WX ASOS at CEW (2.8 nm W): 119.275 (850-682-1237)
WX AWOS-3P at 54J (16 nm E): 118.725 (850-892-0147)

Nearby radio navigation aids

VOR radial/distance  VOR name  Freq  Var
CEWr101/11.2CRESTVIEW VORTAC115.9003E

 
NDB name  Hdg/Dist  Freq  Var  ID
KOBRA144/5.620104WCE -.-. .
JUDD189/31.626402WJUY .--- ..- -.--

Airport Services

Runway Information

Runway N/S

Dimensions: 1800 x 125 ft. / 549 x 38 m
Surface: turf
RUNWAY N  RUNWAY S
Traffic pattern: leftleft
Obstructions: nonepline, 30 ft. from runway

Airport Ownership and Management from official FAA records

Ownership: Privately-owned
Owner: THOMAS & CORDELIA OLDHAM
5706 MOUNT OLIVE RD
CRESTVIEW, FL 32539
Phone (850) 217-9483
Manager: THOMAS & CORDELIA OLDHAM
5706 MOUNT OLIVE RD
CRESTVIEW, FL 32539
Phone (850) 217-9483

Airport Operational Statistics

Aircraft based on the field: 2
Single engine airplanes: 2
    

Additional Remarks

FOR CD CTC EGLIN APCH 850-882-9152 OR 850-882-9151.

Instrument Procedures

There are no published instrument procedures at FL81.

Some nearby airports with instrument procedures:

KCEW - Bob Sikes Airport (3 nm W)
KEGI - Duke Field (Eglin AF Aux Nr 3) Airport (8 nm S)
54J - DeFuniak Springs Airport (16 nm E)
0J4 - Florala Municipal Airport (18 nm NE)
KVPS - Eglin Air Force Base/Destin-Fort Walton Beach Airport (18 nm S)
 
Loc | Ops | Rwys | IFR | FBO | Links
Com | Nav | Svcs | Stats | Notes
Area around FL81 (Triple B Airpark)
 
Road maps at: MapQuest Bing Google
 
Aerial photo
No photo
 
Sectional chart

 
Airport distance calculator
Flying to Triple B Airpark? Find the distance to fly.

From to FL81

Sunrise and sunset
Times for 16-May-2021
 Local
(UTC-5)
 Zulu
(UTC)
Morning civil twilight05:2510:25
Sunrise05:5110:51
Sunset19:3300:33
Evening civil twilight20:0001:00

Current date and time
Zulu (UTC)  16-May-2021 13:34:38
Local (UTC-5)  16-May-2021 08:34:38
 
METAR
KCEW 
3nm W 
161253Z AUTO 08004KT 10SM CLR 17/12 A3025 RMK AO2 SLP243 T01670122
KEGI 
9nm S 
161256Z AUTO 07004KT 6SM HZ CLR 18/13 A3023 RMK AO2 SLP237 T01820126 $
K54J 
16nm E 
161315Z AUTO 00000KT 10SM CLR 18/12 A3026 RMK AO2 T01810121
K0J4 
18nm NE 
161258Z AUTO 08005KT 10SM CLR 18/11 A3027 RMK AO2 SLP248 T01780106
KVPS 
19nm S 
161256Z AUTO 07004KT 7SM CLR 19/13 A3022 RMK AO2 SLP240 T01940133 $
TAF
KEGI 
9nm S 
160101Z 1601/1707 VRB06KT 9999 SKC QNH3013INS BECMG 1614/1615 12012KT 9999 FEW250 QNH3013INS BECMG 1704/1705 08005KT 9999 SKC QNH3014INS TX27/1620Z TN15/1611Z LAST NO AMDS AFT 1601 NEXT 1709
KVPS 
19nm S 
160900Z 1609/1715 07006KT 9999 FEW250 QNH3012INS BECMG 1614/1615 13010G15KT 9999 FEW050 SCT250 QNH3009INS BECMG 1622/1623 16009KT 9999 SCT200 QNH3011INS WND 08006KT AFT 1702 BECMG 1714/1715 14012KT 9999 SCT022 SCT200 QNH3014INS TX27/1620Z TN13/1611Z
NOTAMs
Click for the latest NOTAMs
NOTAMs are issued by the DoD/FAA and will open in a separate window not controlled by AirNav.

 

 
 

Would you like to see your business listed on this page?

 If your business provides an interesting product or service to pilots, flight crews, aircraft, or users of the Triple B Airpark, you should consider listing it here.  To start the listing process, click on the button below
 
Add a business
 

Other Pages about Triple B Airpark

Update a link
 
Copyright © AirNav, LLC. All rights reserved. Privacy Policy  Contact